createdAt,value
2018-05-13T12:09:59.451Z,1004.37
2018-05-13T12:10:59.411Z,1004.36
2018-05-13T12:11:59.391Z,1004.33
2018-05-13T12:12:59.370Z,1004.35
2018-05-13T12:13:59.356Z,1004.31
2018-05-13T12:14:59.329Z,1004.33
2018-05-13T12:15:59.312Z,1004.32
2018-05-13T12:16:59.295Z,1004.35
2018-05-13T12:17:59.275Z,1004.38
2018-05-13T12:18:59.261Z,1004.38
2018-05-13T12:19:59.244Z,1004.38
2018-05-13T12:20:59.227Z,1004.38
2018-05-13T12:21:59.204Z,1004.36
2018-05-13T12:22:59.193Z,1004.44
2018-05-13T12:23:59.161Z,1004.43
2018-05-13T12:24:59.152Z,1004.38
2018-05-13T12:25:59.126Z,1004.40
2018-05-13T12:26:59.127Z,1004.38
2018-05-13T12:27:59.090Z,1004.42
2018-05-13T12:28:59.167Z,1004.41
2018-05-13T12:29:59.057Z,1004.41
2018-05-13T12:30:59.050Z,1004.44
2018-05-13T12:31:59.019Z,1004.39
2018-05-13T12:32:58.996Z,1004.45
2018-05-13T12:33:58.980Z,1004.40
2018-05-13T12:34:58.975Z,1004.44
2018-05-13T12:35:58.949Z,1004.37
2018-05-13T12:36:58.932Z,1004.32
2018-05-13T12:37:58.940Z,1004.35
2018-05-13T12:38:58.889Z,1004.34
2018-05-13T12:39:58.873Z,1004.31
2018-05-13T12:40:58.848Z,1004.26
2018-05-13T12:41:58.833Z,1004.36
2018-05-13T12:42:58.818Z,1004.29
2018-05-13T12:43:58.794Z,1004.33
2018-05-13T12:44:58.772Z,1004.41
2018-05-13T12:45:58.752Z,1004.36
2018-05-13T12:46:58.736Z,1004.33
2018-05-13T12:47:58.718Z,1004.36
2018-05-13T12:48:58.701Z,1004.38
2018-05-13T12:49:58.681Z,1004.33
2018-05-13T12:50:58.658Z,1004.24
2018-05-13T12:51:58.635Z,1004.14
2018-05-13T12:52:58.618Z,1004.18
2018-05-13T12:53:58.600Z,1004.08
2018-05-13T12:54:58.578Z,1004.10
2018-05-13T12:55:58.556Z,1004.22
2018-05-13T12:56:58.537Z,1004.13
2018-05-13T12:57:58.519Z,1004.04
2018-05-13T12:58:58.503Z,1004.08
2018-05-13T12:59:58.482Z,1004.06
2018-05-13T13:00:58.455Z,1004.28
2018-05-13T13:01:58.443Z,1004.35
2018-05-13T13:02:58.420Z,1004.45
2018-05-13T13:03:58.395Z,1004.52
2018-05-13T13:04:58.384Z,1004.64
2018-05-13T13:05:58.359Z,1004.67
2018-05-13T13:06:58.406Z,1004.75
2018-05-13T13:07:58.320Z,1005.02
2018-05-13T13:08:58.304Z,1004.99
2018-05-13T13:09:58.277Z,1005.21
2018-05-13T13:10:58.265Z,1005.46
2018-05-13T13:11:58.238Z,1005.63
2018-05-13T13:12:58.275Z,1005.87
2018-05-13T13:13:58.193Z,1006.05
2018-05-13T13:14:58.185Z,1006.24
2018-05-13T13:15:58.160Z,1006.20
2018-05-13T13:16:58.144Z,1006.44
2018-05-13T13:17:58.121Z,1006.36
2018-05-13T13:18:58.093Z,1006.42
2018-05-13T13:19:58.099Z,1006.40
2018-05-13T13:20:58.052Z,1006.39
2018-05-13T13:21:58.033Z,1006.25
2018-05-13T13:22:58.015Z,1006.09
2018-05-13T13:23:57.993Z,1006.01
2018-05-13T13:24:57.971Z,1005.85
2018-05-13T13:25:58.019Z,1005.75
2018-05-13T13:26:57.929Z,1005.53
2018-05-13T13:27:57.899Z,1005.51
2018-05-13T13:28:57.881Z,1005.45
2018-05-13T13:29:57.861Z,1005.46
2018-05-13T13:30:57.828Z,1005.33
2018-05-13T13:31:57.820Z,1005.43
2018-05-13T13:32:57.781Z,1005.41
2018-05-13T13:33:57.759Z,1005.39
2018-05-13T13:34:57.745Z,1005.37
2018-05-13T13:35:57.711Z,1005.45
2018-05-13T13:36:57.697Z,1005.48
2018-05-13T13:37:57.665Z,1005.45
2018-05-13T13:38:57.651Z,1005.42
2018-05-13T13:39:57.620Z,1005.45
2018-05-13T13:40:57.598Z,1005.53
2018-05-13T13:41:57.581Z,1005.51
2018-05-13T13:42:57.559Z,1005.44
2018-05-13T13:43:57.538Z,1005.46
2018-05-13T13:44:57.503Z,1005.40
2018-05-13T13:45:57.482Z,1005.34
2018-05-13T13:46:57.456Z,1005.42
2018-05-13T13:47:57.441Z,1005.35
2018-05-13T13:48:57.410Z,1005.27
2018-05-13T13:49:57.385Z,1005.21
2018-05-13T13:50:57.365Z,1005.25
2018-05-13T13:51:57.337Z,1005.13
2018-05-13T13:52:57.316Z,1005.12
2018-05-13T13:53:57.291Z,1005.20
2018-05-13T13:54:57.268Z,1005.18
2018-05-13T13:55:57.250Z,1005.10
2018-05-13T13:56:57.226Z,1005.06
2018-05-13T13:57:57.199Z,1005.01
2018-05-13T13:58:57.173Z,1005.07
2018-05-13T13:59:57.144Z,1004.99
2018-05-13T14:00:57.129Z,1004.95
2018-05-13T14:01:57.111Z,1004.95
2018-05-13T14:02:57.075Z,1004.96
2018-05-13T14:03:57.051Z,1004.91
2018-05-13T14:04:57.039Z,1004.94
2018-05-13T14:05:57.004Z,1005.00
2018-05-13T14:06:56.987Z,1005.07
2018-05-13T14:07:56.961Z,1004.98
2018-05-13T14:08:56.938Z,1005.03
2018-05-13T14:09:56.918Z,1005.06
2018-05-13T14:10:56.886Z,1005.13
2018-05-13T14:11:56.894Z,1005.20
2018-05-13T14:12:56.845Z,1005.20
2018-05-13T14:13:56.822Z,1005.24
2018-05-13T14:14:56.793Z,1005.23
2018-05-13T14:15:56.769Z,1005.28
2018-05-13T14:16:56.745Z,1005.33
2018-05-13T14:17:56.723Z,1005.39
2018-05-13T14:18:56.695Z,1005.46
2018-05-13T14:19:56.671Z,1005.53
2018-05-13T14:20:56.653Z,1005.62
2018-05-13T14:21:56.623Z,1005.68
2018-05-13T14:22:56.603Z,1005.76
2018-05-13T14:23:56.656Z,1005.88
2018-05-13T14:24:56.554Z,1006.08
2018-05-13T14:25:56.534Z,1006.23
2018-05-13T14:26:56.575Z,1006.37
2018-05-13T14:27:56.483Z,1006.47
2018-05-13T14:28:56.463Z,1006.51
2018-05-13T14:29:56.431Z,1006.50
2018-05-13T14:30:56.416Z,1006.54
2018-05-13T14:31:56.388Z,1006.52
2018-05-13T14:32:56.450Z,1006.50
2018-05-13T14:33:56.337Z,1006.38
2018-05-13T14:34:56.316Z,1006.32
2018-05-13T14:35:56.294Z,1006.30
2018-05-13T14:36:56.269Z,1006.27
2018-05-13T14:37:56.273Z,1006.32
2018-05-13T14:38:56.219Z,1006.32
2018-05-13T14:39:56.197Z,1006.33
2018-05-13T14:40:56.258Z,1006.40
2018-05-13T14:41:56.149Z,1006.41
2018-05-13T14:42:56.135Z,1006.41
2018-05-13T14:43:56.096Z,1006.44
2018-05-13T14:44:56.083Z,1006.34
2018-05-13T14:45:56.057Z,1006.29
2018-05-13T14:46:56.027Z,1006.22
2018-05-13T14:47:56.054Z,1006.04
2018-05-13T14:48:55.980Z,1006.03
2018-05-13T14:49:55.956Z,1005.90
2018-05-13T14:50:55.943Z,1005.92
2018-05-13T14:51:55.913Z,1005.87
2018-05-13T14:52:55.886Z,1005.84
2018-05-13T14:53:55.868Z,1005.89
2018-05-13T14:54:55.833Z,1005.87
2018-05-13T14:55:55.822Z,1005.88
2018-05-13T14:56:55.795Z,1005.89
2018-05-13T14:57:55.770Z,1005.86
2018-05-13T14:58:55.780Z,1005.91
2018-05-13T14:59:55.719Z,1005.92
2018-05-13T15:00:55.769Z,1005.96
2018-05-13T15:01:55.728Z,1005.99
2018-05-13T15:02:55.784Z,1006.01
2018-05-13T15:03:55.713Z,1006.07
2018-05-13T15:04:56.663Z,1006.04
2018-05-13T15:05:55.677Z,1006.12
2018-05-13T15:06:55.621Z,1006.13
2018-05-13T15:07:55.587Z,1006.17
2018-05-13T15:08:55.581Z,1006.14
2018-05-13T15:09:55.526Z,1006.09
2018-05-13T15:10:55.501Z,1006.09
2018-05-13T15:11:55.491Z,1006.02
2018-05-13T15:12:55.470Z,1006.03
2018-05-13T15:13:55.387Z,1005.88
2018-05-13T15:14:55.366Z,1005.92
2018-05-13T15:15:55.414Z,1005.94
2018-05-13T15:16:55.315Z,1006.08
2018-05-13T15:17:55.295Z,1006.05
2018-05-13T15:18:55.365Z,1006.12
2018-05-13T15:19:55.304Z,1006.19
2018-05-13T15:20:55.214Z,1006.25
2018-05-13T15:21:55.196Z,1006.35
2018-05-13T15:22:55.168Z,1006.40
2018-05-13T15:23:55.150Z,1006.46
2018-05-13T15:24:55.150Z,1006.52
2018-05-13T15:25:55.096Z,1006.58
2018-05-13T15:26:55.079Z,1006.64
2018-05-13T15:27:55.071Z,1006.64
2018-05-13T15:28:55.050Z,1006.67
2018-05-13T15:29:55.010Z,1006.67
2018-05-13T15:30:54.979Z,1006.63
2018-05-13T15:31:54.954Z,1006.60
2018-05-13T15:32:54.932Z,1006.56
2018-05-13T15:33:54.903Z,1006.59
2018-05-13T15:34:54.888Z,1006.53
2018-05-13T15:35:54.860Z,1006.47
2018-05-13T15:36:54.835Z,1006.48
2018-05-13T15:37:54.825Z,1006.42
2018-05-13T15:38:54.783Z,1006.39
2018-05-13T15:39:54.770Z,1006.37
2018-05-13T15:40:54.734Z,1006.35
2018-05-13T15:41:54.711Z,1006.34
2018-05-13T15:42:54.793Z,1006.34
2018-05-13T15:43:54.669Z,1006.30
2018-05-13T15:44:54.648Z,1006.30
2018-05-13T15:45:54.617Z,1006.36
2018-05-13T15:46:54.602Z,1006.30
2018-05-13T15:47:54.566Z,1006.31
2018-05-13T15:48:54.551Z,1006.31
2018-05-13T15:49:54.566Z,1006.30
2018-05-13T15:50:54.495Z,1006.28
2018-05-13T15:51:54.479Z,1006.32
2018-05-13T15:52:54.446Z,1006.31
2018-05-13T15:53:54.425Z,1006.31
2018-05-13T15:54:54.509Z,1006.25
2018-05-13T15:55:54.383Z,1006.28
2018-05-13T15:56:54.358Z,1006.36
2018-05-13T15:57:54.338Z,1006.34
2018-05-13T15:58:54.303Z,1006.41
2018-05-13T15:59:54.286Z,1006.39
2018-05-13T16:00:54.256Z,1006.34
2018-05-13T16:01:54.235Z,1006.27
2018-05-13T16:02:54.215Z,1006.24
2018-05-13T16:03:54.216Z,1006.24
2018-05-13T16:04:54.198Z,1006.20
2018-05-13T16:05:54.140Z,1006.19
2018-05-13T16:06:54.117Z,1006.19
2018-05-13T16:07:54.086Z,1006.20
2018-05-13T16:08:54.068Z,1006.14
2018-05-13T16:09:54.056Z,1006.13
2018-05-13T16:10:54.017Z,1006.10
2018-05-13T16:11:53.995Z,1006.11
2018-05-13T16:12:53.961Z,1006.08
2018-05-13T16:13:53.949Z,1006.02
2018-05-13T16:14:53.961Z,1006.01
2018-05-13T16:15:53.924Z,1006.01
2018-05-13T16:16:53.876Z,1005.97
2018-05-13T16:17:53.853Z,1005.93
2018-05-13T16:18:53.940Z,1006.00
2018-05-13T16:19:53.824Z,1005.96
2018-05-13T16:20:53.776Z,1005.97
2018-05-13T16:21:53.747Z,1005.90
2018-05-13T16:22:53.722Z,1005.89
2018-05-13T16:23:53.709Z,1005.89
2018-05-13T16:24:53.690Z,1005.90
2018-05-13T16:25:53.656Z,1005.78
2018-05-13T16:26:53.639Z,1005.70
2018-05-13T16:27:53.604Z,1005.56
2018-05-13T16:28:53.583Z,1005.52
2018-05-13T16:29:53.551Z,1005.53
2018-05-13T16:30:53.532Z,1005.42
2018-05-13T16:31:53.503Z,1005.43
2018-05-13T16:32:53.696Z,1005.34
2018-05-13T16:33:53.456Z,1005.34
2018-05-13T16:34:53.455Z,1005.38
2018-05-13T16:35:53.414Z,1005.40
2018-05-13T16:36:53.392Z,1005.33
2018-05-13T16:37:53.384Z,1005.34
2018-05-13T16:38:53.340Z,1005.31
2018-05-13T16:39:53.323Z,1005.36
2018-05-13T16:40:53.293Z,1005.33
2018-05-13T16:41:53.327Z,1005.28
2018-05-13T16:42:53.250Z,1005.19
2018-05-13T16:43:53.315Z,1005.23
2018-05-13T16:44:53.200Z,1005.23
2018-05-13T16:45:53.173Z,1005.12
2018-05-13T16:46:53.154Z,1005.07
2018-05-13T16:47:53.120Z,1005.12
2018-05-13T16:48:53.111Z,1005.04
2018-05-13T16:49:53.075Z,1005.01
2018-05-13T16:50:53.047Z,1004.95
2018-05-13T16:51:53.024Z,1004.93
2018-05-13T16:52:53.004Z,1004.92
2018-05-13T16:53:53.020Z,1005.01
2018-05-13T16:54:52.962Z,1004.99
2018-05-13T16:55:52.932Z,1004.96
2018-05-13T16:56:52.905Z,1004.96
2018-05-13T16:57:52.877Z,1005.00
2018-05-13T16:58:52.873Z,1004.95
2018-05-13T16:59:52.927Z,1004.95
2018-05-13T17:00:52.808Z,1004.96
2018-05-13T17:01:52.782Z,1004.94
2018-05-13T17:02:52.766Z,1004.93
2018-05-13T17:03:52.781Z,1004.94
2018-05-13T17:04:52.707Z,1004.90
2018-05-13T17:05:52.719Z,1004.79
2018-05-13T17:06:52.715Z,1004.82
2018-05-13T17:07:52.737Z,1004.84
2018-05-13T17:08:52.629Z,1004.82
2018-05-13T17:09:52.593Z,1004.83
2018-05-13T17:10:52.561Z,1004.83
2018-05-13T17:11:52.541Z,1004.88
2018-05-13T17:12:52.532Z,1004.96
2018-05-13T17:13:52.486Z,1004.97
2018-05-13T17:14:52.472Z,1005.02
2018-05-13T17:15:52.444Z,1005.03
2018-05-13T17:16:52.427Z,1005.02
2018-05-13T17:17:52.391Z,1005.03
2018-05-13T17:18:52.372Z,1005.03
2018-05-13T17:19:52.351Z,1005.01
2018-05-13T17:20:52.324Z,1005.06
2018-05-13T17:21:52.304Z,1005.11
2018-05-13T17:22:52.289Z,1005.15
2018-05-13T17:23:52.260Z,1005.19
2018-05-13T17:24:52.225Z,1005.21
2018-05-13T17:25:52.198Z,1005.30
2018-05-13T17:26:52.182Z,1005.41
2018-05-13T17:27:52.148Z,1005.49
2018-05-13T17:28:52.134Z,1005.44
2018-05-13T17:29:52.141Z,1005.46
2018-05-13T17:30:52.081Z,1005.50
2018-05-13T17:31:52.055Z,1005.52
2018-05-13T17:32:52.038Z,1005.59
2018-05-13T17:33:52.010Z,1005.69
2018-05-13T17:34:51.982Z,1005.79
2018-05-13T17:35:51.959Z,1005.92
2018-05-13T17:36:51.933Z,1005.98
2018-05-13T17:37:51.913Z,1006.03
2018-05-13T17:38:51.886Z,1006.09
2018-05-13T17:39:51.869Z,1006.18
2018-05-13T17:40:51.842Z,1006.22
2018-05-13T17:41:51.814Z,1006.22
2018-05-13T17:42:51.792Z,1006.22
2018-05-13T17:43:51.766Z,1006.26
2018-05-13T17:44:51.744Z,1006.27
2018-05-13T17:45:51.714Z,1006.26
2018-05-13T17:46:51.699Z,1006.26
2018-05-13T17:47:51.726Z,1006.25
2018-05-13T17:48:51.653Z,1006.25
2018-05-13T17:49:51.714Z,1006.16
2018-05-13T17:50:51.600Z,1006.15
2018-05-13T17:51:51.588Z,1006.18
2018-05-13T17:52:51.547Z,1006.19
2018-05-13T17:53:51.525Z,1006.22
2018-05-13T17:54:51.505Z,1006.21
2018-05-13T17:55:51.486Z,1006.17
2018-05-13T17:56:51.450Z,1006.13
2018-05-13T17:57:51.436Z,1006.14
2018-05-13T17:58:51.593Z,1006.15
2018-05-13T17:59:51.378Z,1006.14
2018-05-13T18:00:51.396Z,1006.18
2018-05-13T18:01:51.334Z,1006.21
2018-05-13T18:02:51.309Z,1006.24
2018-05-13T18:03:51.288Z,1006.30
2018-05-13T18:04:51.268Z,1006.31
2018-05-13T18:05:51.235Z,1006.34
2018-05-13T18:06:51.278Z,1006.36
2018-05-13T18:07:51.188Z,1006.27
2018-05-13T18:08:51.168Z,1006.24
2018-05-13T18:09:51.141Z,1006.23
2018-05-13T18:10:51.127Z,1006.25
2018-05-13T18:11:51.099Z,1006.26
2018-05-13T18:12:51.071Z,1006.34
2018-05-13T18:13:51.055Z,1006.35
2018-05-13T18:14:51.030Z,1006.33
2018-05-13T18:15:51.007Z,1006.33
2018-05-13T18:16:50.980Z,1006.28
2018-05-13T18:17:50.953Z,1006.23
2018-05-13T18:18:50.936Z,1006.23
2018-05-13T18:19:50.908Z,1006.19
2018-05-13T18:20:50.881Z,1006.20
2018-05-13T18:21:50.856Z,1006.13
2018-05-13T18:22:50.856Z,1006.11
2018-05-13T18:23:50.823Z,1006.11
2018-05-13T18:24:50.853Z,1006.08
2018-05-13T18:25:50.762Z,1006.06
2018-05-13T18:26:50.740Z,1006.03
2018-05-13T18:27:50.715Z,1006.05
2018-05-13T18:28:50.699Z,1006.03
2018-05-13T18:29:50.670Z,1006.06
2018-05-13T18:30:50.646Z,1006.02
2018-05-13T18:31:50.626Z,1006.01
2018-05-13T18:32:50.593Z,1005.98
2018-05-13T18:33:50.578Z,1005.99
2018-05-13T18:34:50.558Z,1006.02
2018-05-13T18:35:50.522Z,1006.01
2018-05-13T18:36:50.501Z,1006.04
2018-05-13T18:37:50.476Z,1006.14
2018-05-13T18:38:50.463Z,1006.20
2018-05-13T18:39:50.429Z,1006.26
2018-05-13T18:40:50.406Z,1006.30
2018-05-13T18:41:50.378Z,1006.34
2018-05-13T18:42:50.370Z,1006.46
2018-05-13T18:43:50.329Z,1006.47
2018-05-13T18:44:50.316Z,1006.47
2018-05-13T18:45:50.289Z,1006.47
2018-05-13T18:46:50.256Z,1006.45
2018-05-13T18:47:50.240Z,1006.42
2018-05-13T18:48:50.263Z,1006.42
2018-05-13T18:49:50.190Z,1006.46
2018-05-13T18:50:50.163Z,1006.45
2018-05-13T18:51:50.143Z,1006.52
2018-05-13T18:52:50.116Z,1006.56
2018-05-13T18:53:50.092Z,1006.62
2018-05-13T18:54:50.068Z,1006.65
2018-05-13T18:55:50.052Z,1006.68
2018-05-13T18:56:50.020Z,1006.67
2018-05-13T18:57:49.999Z,1006.63
2018-05-13T18:58:50.063Z,1006.59
2018-05-13T18:59:49.960Z,1006.55
2018-05-13T19:00:49.921Z,1006.51
2018-05-13T19:01:49.915Z,1006.45
2018-05-13T19:02:49.879Z,1006.40
2018-05-13T19:03:49.852Z,1006.33
2018-05-13T19:04:49.836Z,1006.25
2018-05-13T19:05:49.822Z,1006.16
2018-05-13T19:06:49.781Z,1006.13
2018-05-13T19:07:49.757Z,1006.07
2018-05-13T19:08:49.742Z,1006.13
2018-05-13T19:09:49.708Z,1006.08
2018-05-13T19:10:49.704Z,1006.06
2018-05-13T19:11:49.666Z,1006.01
2018-05-13T19:12:49.644Z,1005.93
2018-05-13T19:13:49.621Z,1005.86
2018-05-13T19:14:49.595Z,1005.77
2018-05-13T19:15:49.564Z,1005.74
2018-05-13T19:16:49.552Z,1005.65
2018-05-13T19:17:49.521Z,1005.71
2018-05-13T19:18:49.500Z,1005.73
2018-05-13T19:19:49.478Z,1005.69
2018-05-13T19:20:49.445Z,1005.69
2018-05-13T19:21:49.426Z,1005.69
2018-05-13T19:22:49.409Z,1005.65
2018-05-13T19:23:49.375Z,1005.78
2018-05-13T19:24:49.395Z,1005.72
2018-05-13T19:25:49.336Z,1005.70
2018-05-13T19:26:49.301Z,1005.75
2018-05-13T19:27:49.285Z,1005.77
2018-05-13T19:28:49.254Z,1005.78
2018-05-13T19:29:49.240Z,1005.80
2018-05-13T19:30:49.257Z,1005.81
2018-05-13T19:31:49.189Z,1005.87
2018-05-13T19:32:49.156Z,1005.91
2018-05-13T19:33:49.135Z,1005.95
2018-05-13T19:34:49.121Z,1006.08
2018-05-13T19:35:49.086Z,1006.23
2018-05-13T19:36:49.157Z,1006.33
2018-05-13T19:37:49.038Z,1006.48
2018-05-13T19:38:49.031Z,1006.59
2018-05-13T19:39:48.995Z,1006.82
2018-05-13T19:40:48.969Z,1006.94
2018-05-13T19:41:48.949Z,1007.03
2018-05-13T19:42:48.928Z,1007.04
2018-05-13T19:43:48.896Z,1007.01
2018-05-13T19:44:48.870Z,1006.97
2018-05-13T19:45:48.843Z,1006.94
2018-05-13T19:46:48.828Z,1006.97
2018-05-13T19:47:48.802Z,1006.93
2018-05-13T19:48:48.776Z,1006.88
2018-05-13T19:49:48.757Z,1006.79
2018-05-13T19:50:48.812Z,1006.72
2018-05-13T19:51:48.707Z,1006.62
2018-05-13T19:52:48.679Z,1006.55
2018-05-13T19:53:48.656Z,1006.50
2018-05-13T19:54:48.629Z,1006.49
2018-05-13T19:55:48.711Z,1006.49
2018-05-13T19:56:48.673Z,1006.55
2018-05-13T19:57:48.556Z,1006.61
2018-05-13T19:58:48.588Z,1006.49
2018-05-13T19:59:48.591Z,1006.51
2018-05-13T20:00:48.534Z,1006.44
2018-05-13T20:01:48.517Z,1006.42
2018-05-13T20:02:48.599Z,1006.37
2018-05-13T20:03:48.625Z,1006.44
2018-05-13T20:04:48.432Z,1006.39
2018-05-13T20:05:48.417Z,1006.40
2018-05-13T20:06:48.413Z,1006.33
2018-05-13T20:07:48.318Z,1006.36
2018-05-13T20:08:49.073Z,1006.33
2018-05-13T20:09:48.374Z,1006.35
2018-05-13T20:10:48.242Z,1006.34
2018-05-13T20:11:48.275Z,1006.34
2018-05-13T20:12:48.261Z,1006.32
2018-05-13T20:13:48.221Z,1006.25
2018-05-13T20:14:48.152Z,1006.30
2018-05-13T20:15:48.183Z,1006.31
2018-05-13T20:16:48.153Z,1006.40
2018-05-13T20:17:48.077Z,1006.48
2018-05-13T20:18:48.049Z,1006.60
2018-05-13T20:19:48.075Z,1006.72
2018-05-13T20:20:48.002Z,1006.79
2018-05-13T20:21:48.010Z,1006.80
2018-05-13T20:22:48.045Z,1006.77
2018-05-13T20:23:47.932Z,1006.66
2018-05-13T20:24:47.964Z,1006.62
2018-05-13T20:25:47.931Z,1006.60
2018-05-13T20:26:47.912Z,1006.59
2018-05-13T20:27:47.854Z,1006.59
2018-05-13T20:28:47.872Z,1006.63
2018-05-13T20:29:47.784Z,1006.67
2018-05-13T20:30:47.764Z,1006.71
2018-05-13T20:31:47.800Z,1006.69
2018-05-13T20:32:47.782Z,1006.72
2018-05-13T20:33:47.748Z,1006.70
2018-05-13T20:34:47.724Z,1006.72
2018-05-13T20:35:47.678Z,1006.67
2018-05-13T20:36:47.618Z,1006.67
2018-05-13T20:37:47.658Z,1006.67
2018-05-13T20:38:47.629Z,1006.67
2018-05-13T20:39:47.604Z,1006.59
2018-05-13T20:40:47.518Z,1006.48
2018-05-13T20:41:47.485Z,1006.39
2018-05-13T20:42:47.514Z,1006.38
2018-05-13T20:43:47.437Z,1006.43
2018-05-13T20:44:47.421Z,1006.41
2018-05-13T20:45:47.461Z,1006.40
2018-05-13T20:46:47.427Z,1006.42
2018-05-13T20:47:47.411Z,1006.45
2018-05-13T20:48:47.327Z,1006.47
2018-05-13T20:49:47.296Z,1006.48
2018-05-13T20:50:47.329Z,1006.46
2018-05-13T20:51:47.251Z,1006.47
2018-05-13T20:52:47.268Z,1006.41
2018-05-13T20:53:47.212Z,1006.46
2018-05-13T20:54:47.174Z,1006.50
2018-05-13T20:55:47.205Z,1006.56
2018-05-13T20:56:47.134Z,1006.52
2018-05-13T20:57:47.204Z,1006.54
2018-05-13T20:58:47.081Z,1006.57
2018-05-13T20:59:47.119Z,1006.65
2018-05-13T21:00:47.029Z,1006.76
2018-05-13T21:01:47.009Z,1006.78
2018-05-13T21:02:47.059Z,1006.79
2018-05-13T21:03:46.959Z,1006.86
2018-05-13T21:04:46.994Z,1006.88
2018-05-13T21:05:46.911Z,1006.91
2018-05-13T21:06:46.900Z,1006.93
2018-05-13T21:07:46.862Z,1006.91
2018-05-13T21:08:46.899Z,1006.89
2018-05-13T21:09:46.818Z,1006.86
2018-05-13T21:10:46.834Z,1006.87
2018-05-13T21:11:46.802Z,1006.86
2018-05-13T21:12:46.734Z,1006.91
2018-05-13T21:13:46.718Z,1006.91
2018-05-13T21:14:46.696Z,1006.86
2018-05-13T21:15:46.721Z,1006.90
2018-05-13T21:16:46.698Z,1006.85
2018-05-13T21:17:46.712Z,1006.88
2018-05-13T21:18:46.649Z,1006.93
2018-05-13T21:19:46.571Z,1006.95
2018-05-13T21:20:46.586Z,1006.95
2018-05-13T21:21:46.577Z,1006.91
2018-05-13T21:22:46.496Z,1006.89
2018-05-13T21:23:46.484Z,1006.85
2018-05-13T21:24:46.446Z,1006.88
2018-05-13T21:25:46.476Z,1006.95
2018-05-13T21:26:46.407Z,1006.90
2018-05-13T21:27:46.375Z,1006.88
2018-05-13T21:28:46.357Z,1006.91
2018-05-13T21:29:46.329Z,1006.88
2018-05-13T21:30:46.301Z,1006.88
2018-05-13T21:31:46.288Z,1006.89
2018-05-13T21:32:46.260Z,1006.92
2018-05-13T21:33:46.240Z,1006.92
2018-05-13T21:34:46.214Z,1006.92
2018-05-13T21:35:46.180Z,1006.96
2018-05-13T21:36:46.159Z,1006.97
2018-05-13T21:37:46.132Z,1006.95
2018-05-13T21:38:46.119Z,1006.98
2018-05-13T21:39:46.091Z,1007.01
2018-05-13T21:40:46.066Z,1007.01
2018-05-13T21:41:46.053Z,1006.99
2018-05-13T21:42:46.014Z,1006.96
2018-05-13T21:43:45.991Z,1006.97
2018-05-13T21:44:45.967Z,1006.96
2018-05-13T21:45:45.939Z,1006.96
2018-05-13T21:46:45.933Z,1006.99
2018-05-13T21:47:47.086Z,1006.98
2018-05-13T21:48:45.878Z,1007.00
2018-05-13T21:49:45.853Z,1007.02
2018-05-13T21:50:45.829Z,1007.05
2018-05-13T21:51:45.797Z,1007.06
2018-05-13T21:52:45.773Z,1007.06
2018-05-13T21:53:45.750Z,1007.10
2018-05-13T21:54:45.727Z,1007.07
2018-05-13T21:55:45.701Z,1007.05
2018-05-13T21:56:45.709Z,1007.07
2018-05-13T21:57:45.657Z,1007.04
2018-05-13T21:58:45.629Z,1007.02
2018-05-13T21:59:45.609Z,1007.02
2018-05-13T22:00:45.584Z,1007.02
2018-05-13T22:01:45.556Z,1006.98
2018-05-13T22:02:45.541Z,1006.99
2018-05-13T22:03:45.509Z,1006.99
2018-05-13T22:04:45.480Z,1006.98
2018-05-13T22:05:45.506Z,1007.03
2018-05-13T22:06:45.482Z,1006.98
2018-05-13T22:07:45.420Z,1007.02
2018-05-13T22:08:45.388Z,1006.99
2018-05-13T22:09:45.366Z,1006.94
2018-05-13T22:10:45.341Z,1006.94
2018-05-13T22:11:45.320Z,1006.93
2018-05-13T22:12:45.298Z,1006.93
2018-05-13T22:13:45.271Z,1006.87
2018-05-13T22:14:45.246Z,1006.88
2018-05-13T22:15:45.223Z,1006.84
2018-05-13T22:16:45.197Z,1006.80
2018-05-13T22:17:45.177Z,1006.81
2018-05-13T22:18:45.158Z,1006.84
2018-05-13T22:19:45.119Z,1006.85
2018-05-13T22:20:45.105Z,1006.87
2018-05-13T22:21:45.081Z,1006.84
2018-05-13T22:22:45.049Z,1006.83
2018-05-13T22:23:45.026Z,1006.86
2018-05-13T22:24:45.024Z,1006.89
2018-05-13T22:25:45.043Z,1006.88
2018-05-13T22:26:44.988Z,1006.85
2018-05-13T22:27:44.936Z,1006.84
2018-05-13T22:28:44.907Z,1006.83
2018-05-13T22:29:44.883Z,1006.83
2018-05-13T22:30:44.865Z,1006.84
2018-05-13T22:31:44.832Z,1006.80
2018-05-13T22:32:44.816Z,1006.79
2018-05-13T22:33:44.786Z,1006.77
2018-05-13T22:34:44.767Z,1006.77
2018-05-13T22:35:44.740Z,1006.80
2018-05-13T22:36:44.719Z,1006.74
2018-05-13T22:37:44.692Z,1006.73
2018-05-13T22:38:44.675Z,1006.76
2018-05-13T22:39:44.641Z,1006.75
2018-05-13T22:40:44.619Z,1006.75
2018-05-13T22:41:44.595Z,1006.75
2018-05-13T22:42:44.581Z,1006.75
2018-05-13T22:43:44.548Z,1006.75
2018-05-13T22:44:44.531Z,1006.74
2018-05-13T22:45:44.504Z,1006.75
2018-05-13T22:46:44.479Z,1006.78
2018-05-13T22:47:44.461Z,1006.80
2018-05-13T22:48:44.434Z,1006.78
2018-05-13T22:49:44.413Z,1006.74
2018-05-13T22:50:44.383Z,1006.76
2018-05-13T22:51:44.353Z,1006.74
2018-05-13T22:52:44.351Z,1006.73
2018-05-13T22:53:44.310Z,1006.72
2018-05-13T22:54:44.288Z,1006.74
2018-05-13T22:55:44.269Z,1006.69
2018-05-13T22:56:44.232Z,1006.72
2018-05-13T22:57:44.251Z,1006.70
2018-05-13T22:58:44.186Z,1006.73
2018-05-13T22:59:44.172Z,1006.73
2018-05-13T23:00:44.143Z,1006.72
2018-05-13T23:01:44.120Z,1006.73
2018-05-13T23:02:44.100Z,1006.70
2018-05-13T23:03:44.071Z,1006.69
2018-05-13T23:04:44.045Z,1006.69
2018-05-13T23:05:44.033Z,1006.70
2018-05-13T23:06:44.008Z,1006.70
2018-05-13T23:07:43.973Z,1006.71
2018-05-13T23:08:43.955Z,1006.69
2018-05-13T23:09:48.026Z,1006.65
2018-05-13T23:10:43.901Z,1006.64
2018-05-13T23:11:43.881Z,1006.60
2018-05-13T23:12:43.857Z,1006.61
2018-05-13T23:13:43.828Z,1006.58
2018-05-13T23:14:43.813Z,1006.56
2018-05-13T23:15:43.780Z,1006.58
2018-05-13T23:16:43.764Z,1006.58
2018-05-13T23:17:43.740Z,1006.57
2018-05-13T23:18:43.711Z,1006.57
2018-05-13T23:19:43.692Z,1006.54
2018-05-13T23:20:43.662Z,1006.54
2018-05-13T23:21:43.636Z,1006.58
2018-05-13T23:22:43.614Z,1006.56
2018-05-13T23:23:43.589Z,1006.56
2018-05-13T23:24:43.572Z,1006.59
2018-05-13T23:25:43.552Z,1006.58
2018-05-13T23:26:43.523Z,1006.54
2018-05-13T23:27:43.495Z,1006.53
2018-05-13T23:28:43.473Z,1006.54
2018-05-13T23:29:43.447Z,1006.54
2018-05-13T23:30:43.426Z,1006.58
2018-05-13T23:31:43.404Z,1006.55
2018-05-13T23:32:43.375Z,1006.54
2018-05-13T23:33:43.358Z,1006.55
2018-05-13T23:34:43.327Z,1006.50
2018-05-13T23:35:43.300Z,1006.56
2018-05-13T23:36:43.286Z,1006.51
2018-05-13T23:37:43.266Z,1006.52
2018-05-13T23:38:43.240Z,1006.53
2018-05-13T23:39:43.213Z,1006.54
2018-05-13T23:40:43.183Z,1006.51
2018-05-13T23:41:43.167Z,1006.54
2018-05-13T23:42:43.143Z,1006.52
2018-05-13T23:43:43.118Z,1006.52
2018-05-13T23:44:43.095Z,1006.52
2018-05-13T23:45:43.066Z,1006.47
2018-05-13T23:46:43.039Z,1006.48
2018-05-13T23:47:43.012Z,1006.48
2018-05-13T23:48:42.999Z,1006.49
2018-05-13T23:49:42.968Z,1006.47
2018-05-13T23:50:42.947Z,1006.46
2018-05-13T23:51:42.926Z,1006.46
2018-05-13T23:52:42.898Z,1006.42
2018-05-13T23:53:42.877Z,1006.42
2018-05-13T23:54:42.855Z,1006.44
2018-05-13T23:55:42.822Z,1006.39
2018-05-13T23:56:42.807Z,1006.38
2018-05-13T23:57:42.778Z,1006.37
2018-05-13T23:58:42.764Z,1006.38
2018-05-13T23:59:42.734Z,1006.31
